Time;durP1;ratioP1;P1;durP2;ratioP2;P2;SDS_P1;SDS_P2;PMS_P1;PMS_P2;Temp;Humidity;BMP_temperature;BMP_pressure;BME280_temperature;BME280_humidity;BME280_pressure;Samples;Min_cycle;Max_cycle;Signal;HPM_P1;HPM_P2
2021/09/01 00:01:24;;;;;;;17.75;3.63;;;;;;;16.99;65.06;102844.38;5051789;28;20025;-41
2021/09/01 00:03:49;;;;;;;12.20;3.72;;;;;;;17.00;64.27;102847.94;5051988;28;20045;-41
2021/09/01 00:06:14;;;;;;;18.92;3.72;;;;;;;17.02;64.27;102843.19;5057783;28;20032;-41
2021/09/01 00:08:40;;;;;;;20.15;4.53;;;;;;;17.03;64.00;102844.84;5058139;28;20033;-40
2021/09/01 00:11:05;;;;;;;17.25;3.78;;;;;;;16.94;64.29;102841.31;5057461;28;20017;-42
2021/09/01 00:13:30;;;;;;;11.52;3.38;;;;;;;16.90;64.28;102834.53;5056442;28;20101;-40
2021/09/01 00:15:56;;;;;;;12.63;3.40;;;;;;;16.97;63.79;102840.97;5057905;28;20147;-42
2021/09/01 00:18:21;;;;;;;13.10;3.72;;;;;;;16.93;64.02;102845.09;5058719;28;20398;-41
2021/09/01 00:20:46;;;;;;;17.60;3.88;;;;;;;16.97;63.57;102842.84;5058037;28;20025;-40
2021/09/01 00:23:14;;;;;;;13.60;3.63;;;;;;;16.93;63.50;102844.22;5056731;28;20393;-42
2021/09/01 00:25:41;;;;;;;15.77;3.40;;;;;;;16.97;63.44;102845.56;5056346;28;20029;-40
2021/09/01 00:28:07;;;;;;;14.90;3.72;;;;;;;17.02;62.98;102851.34;5055631;28;20037;-42
2021/09/01 00:30:32;;;;;;;10.50;3.30;;;;;;;17.03;62.64;102836.69;5055752;28;20075;-41
2021/09/01 00:32:57;;;;;;;11.82;3.20;;;;;;;16.99;62.10;102838.94;5055665;28;20053;-41
2021/09/01 00:35:23;;;;;;;15.27;3.72;;;;;;;16.92;62.40;102845.25;5055138;28;20057;-41
2021/09/01 00:37:48;;;;;;;14.63;3.80;;;;;;;16.93;62.37;102844.22;5055931;28;20028;-41
2021/09/01 00:40:14;;;;;;;14.00;3.65;;;;;;;16.96;61.97;102842.00;5055835;28;20025;-41
2021/09/01 00:42:39;;;;;;;13.13;3.60;;;;;;;16.91;62.27;102841.69;5055359;28;20033;-42
2021/09/01 00:45:05;;;;;;;12.25;3.35;;;;;;;16.93;61.98;102845.09;5055561;28;20036;-41
2021/09/01 00:47:30;;;;;;;14.85;3.78;;;;;;;16.93;61.85;102844.22;5054909;28;20025;-41
2021/09/01 00:49:56;;;;;;;13.35;3.50;;;;;;;16.89;61.71;102835.56;5056819;28;20061;-40
2021/09/01 00:52:22;;;;;;;8.93;3.15;;;;;;;16.84;61.79;102838.81;5055296;28;20115;-41
2021/09/01 00:54:48;;;;;;;16.25;3.60;;;;;;;16.83;62.41;102839.00;5055052;28;20096;-41
2021/09/01 00:57:14;;;;;;;13.07;3.30;;;;;;;16.89;61.86;102836.41;5055294;28;20047;-40
2021/09/01 00:59:41;;;;;;;13.10;3.70;;;;;;;16.84;62.03;102836.09;5073108;28;20369;-41
2021/09/01 01:02:06;;;;;;;10.50;3.50;;;;;;;16.80;62.73;102833.91;5055332;28;20068;-41
2021/09/01 01:04:33;;;;;;;19.10;3.50;;;;;;;16.84;62.58;102837.97;5053794;28;20037;-41
2021/09/01 01:07:06;;;;;;;11.50;3.33;;;;;;;16.91;62.64;102836.25;5053925;28;20116;-41
2021/09/01 01:09:32;;;;;;;12.55;3.55;;;;;;;16.86;62.81;102839.47;5055391;28;20029;-41
2021/09/01 01:12:10;;;;;;;11.57;3.28;;;;;;;16.81;62.68;102835.59;5054746;28;20036;-41
2021/09/01 01:14:37;;;;;;;11.10;2.85;;;;;;;16.82;62.44;102832.69;5041139;28;20037;-41
2021/09/01 01:17:04;;;;;;;11.65;2.83;;;;;;;16.80;62.82;102840.19;5054204;28;20066;-41
2021/09/01 01:19:29;;;;;;;12.90;3.40;;;;;;;16.79;62.20;102838.47;5053989;28;20033;-40
2021/09/01 01:21:56;;;;;;;17.00;3.88;;;;;;;16.75;62.43;102842.56;5054183;28;20366;-41
2021/09/01 01:24:22;;;;;;;10.43;3.20;;;;;;;16.78;62.07;102844.09;5053433;28;20367;-42
2021/09/01 01:26:47;;;;;;;14.10;3.22;;;;;;;16.74;61.44;102840.84;5054899;28;20286;-41
2021/09/01 01:29:12;;;;;;;8.13;2.72;;;;;;;16.71;61.65;102840.34;5054885;28;20501;-39
2021/09/01 01:31:38;;;;;;;9.25;2.30;;;;;;;16.74;60.98;102837.28;5054429;28;20576;-40
2021/09/01 01:34:11;;;;;;;8.32;2.72;;;;;;;16.72;60.81;102834.75;5054370;28;20028;-41
2021/09/01 01:36:36;;;;;;;11.73;2.50;;;;;;;16.75;60.40;102842.56;5053357;28;20107;-41
2021/09/01 01:39:02;;;;;;;9.82;3.08;;;;;;;16.65;60.44;102836.47;5054782;28;20032;-41
2021/09/01 01:41:27;;;;;;;8.68;2.70;;;;;;;16.54;61.20;102832.22;5054527;28;20442;-42
2021/09/01 01:43:52;;;;;;;12.85;3.00;;;;;;;16.51;61.13;102834.44;5054311;28;20021;-40
2021/09/01 01:46:18;;;;;;;10.93;3.13;;;;;;;16.44;61.65;102829.69;5054410;28;20028;-41
2021/09/01 01:48:43;;;;;;;11.98;3.22;;;;;;;16.46;61.30;102834.97;5054638;28;20452;-41
2021/09/01 01:51:08;;;;;;;9.18;2.75;;;;;;;16.45;61.44;102827.81;5053028;28;20035;-41
2021/09/01 01:53:33;;;;;;;8.75;3.30;;;;;;;16.42;61.98;102831.72;5053545;28;20027;-41
2021/09/01 01:55:59;;;;;;;8.38;2.80;;;;;;;16.40;62.10;102833.78;5054053;28;20060;-41
2021/09/01 01:58:24;;;;;;;8.38;2.85;;;;;;;16.49;61.44;102831.91;5061955;28;20071;-42
2021/09/01 02:00:50;;;;;;;8.32;2.85;;;;;;;16.50;61.80;102827.31;5062609;28;20095;-41
2021/09/01 02:03:16;;;;;;;9.60;2.88;;;;;;;16.53;61.76;102826.97;5053588;28;20028;-40
2021/09/01 02:05:42;;;;;;;10.23;2.72;;;;;;;16.51;62.01;102829.00;5053483;28;20028;-40
2021/09/01 02:08:07;;;;;;;9.35;3.10;;;;;;;16.48;61.64;102826.63;5054278;28;20364;-41
2021/09/01 02:10:33;;;;;;;8.90;2.60;;;;;;;16.46;61.80;102827.66;5054392;28;20044;-42
2021/09/01 02:12:58;;;;;;;16.73;3.70;;;;;;;16.45;62.06;102830.53;5053836;28;20033;-40
2021/09/01 02:15:23;;;;;;;9.43;2.97;;;;;;;16.50;61.89;102835.47;5053645;28;20037;-40
2021/09/01 02:17:49;;;;;;;11.90;3.47;;;;;;;16.48;62.24;102834.78;5053605;28;20052;-42
2021/09/01 02:20:15;;;;;;;10.95;3.08;;;;;;;16.53;61.78;102827.81;5051863;28;20488;-41
2021/09/01 02:22:41;;;;;;;11.30;2.95;;;;;;;16.55;61.70;102831.19;5053230;28;20036;-40
2021/09/01 02:25:08;;;;;;;12.88;3.25;;;;;;;16.52;61.68;102825.28;5053091;28;20499;-40
2021/09/01 02:27:34;;;;;;;11.25;3.00;;;;;;;16.48;62.06;102822.03;5053534;28;20068;-41
2021/09/01 02:29:59;;;;;;;9.80;2.78;;;;;;;16.52;62.02;102825.28;5053688;28;20060;-40
2021/09/01 02:32:25;;;;;;;10.77;3.13;;;;;;;16.49;62.26;102822.91;5053297;28;20123;-40
2021/09/01 02:34:50;;;;;;;11.07;3.10;;;;;;;16.45;62.70;102825.94;5053517;28;20024;-40
2021/09/01 02:37:16;;;;;;;14.10;3.50;;;;;;;16.45;62.78;102827.81;5053599;28;20025;-41
2021/09/01 02:39:41;;;;;;;15.05;3.25;;;;;;;16.41;63.50;102824.59;5053548;28;20028;-40
2021/09/01 02:42:07;;;;;;;19.02;3.67;;;;;;;16.39;62.89;102823.94;5053014;28;20091;-42
2021/09/01 02:44:32;;;;;;;12.05;3.17;;;;;;;16.38;63.25;102818.69;5052936;28;20111;-40
2021/09/01 02:46:57;;;;;;;15.05;3.40;;;;;;;16.38;63.35;102824.13;5052277;28;20037;-41
2021/09/01 02:49:22;;;;;;;12.07;3.28;;;;;;;16.38;63.08;102824.13;5040515;28;20068;-41
2021/09/01 02:51:48;;;;;;;14.27;3.30;;;;;;;16.37;63.02;102827.84;5051139;28;20047;-41
2021/09/01 02:54:13;;;;;;;8.82;2.85;;;;;;;16.41;63.41;102829.19;5052732;28;20029;-41
2021/09/01 02:56:38;;;;;;;9.75;3.05;;;;;;;16.52;63.31;102830.72;5053306;28;20079;-41
2021/09/01 02:59:04;;;;;;;11.25;3.88;;;;;;;16.51;63.14;102829.00;5053337;28;20113;-40
2021/09/01 03:01:29;;;;;;;9.65;3.40;;;;;;;16.49;63.29;102839.22;5052389;28;20071;-40
2021/09/01 03:03:54;;;;;;;21.90;4.15;;;;;;;16.48;63.23;102834.78;5053152;28;20155;-40
2021/09/01 03:06:20;;;;;;;12.07;3.40;;;;;;;16.41;63.57;102827.31;5053004;28;20060;-39
2021/09/01 03:08:45;;;;;;;14.15;3.30;;;;;;;16.38;64.77;102830.41;5053117;28;20449;-41
2021/09/01 03:11:10;;;;;;;9.63;3.42;;;;;;;16.33;63.88;102821.91;5052705;28;20452;-41
2021/09/01 03:13:36;;;;;;;10.75;3.20;;;;;;;16.35;64.58;102819.00;5052648;28;20037;-41
2021/09/01 03:16:01;;;;;;;14.98;3.40;;;;;;;16.34;64.12;102818.16;5052394;28;20055;-41
2021/09/01 03:18:27;;;;;;;10.35;3.10;;;;;;;16.35;64.78;102819.00;5052825;28;20029;-41
2021/09/01 03:20:52;;;;;;;19.63;3.53;;;;;;;16.33;64.94;102816.47;5052922;28;20029;-40
2021/09/01 03:23:18;;;;;;;10.77;3.22;;;;;;;16.34;63.85;102820.88;5052706;28;20064;-41
2021/09/01 03:25:43;;;;;;;13.13;3.13;;;;;;;16.34;64.16;102812.72;5052372;28;20025;-41
2021/09/01 03:28:09;;;;;;;7.57;2.70;;;;;;;16.32;64.63;102814.75;5052613;28;20075;-42
2021/09/01 03:30:34;;;;;;;12.68;3.33;;;;;;;16.34;64.30;102815.44;5052904;28;20029;-41
2021/09/01 03:33:00;;;;;;;15.05;3.63;;;;;;;16.34;64.96;102820.03;5052863;28;20049;-42
2021/09/01 03:35:25;;;;;;;17.55;3.42;;;;;;;16.32;64.42;102820.19;5052211;28;20040;-41
2021/09/01 03:37:50;;;;;;;11.45;3.42;;;;;;;16.33;64.90;102816.47;5051816;28;20035;-41
2021/09/01 03:40:16;;;;;;;9.85;2.78;;;;;;;16.31;65.03;102820.38;5052201;28;20021;-41
2021/09/01 03:42:41;;;;;;;15.23;3.22;;;;;;;16.26;64.40;102829.03;5052694;28;20047;-40
2021/09/01 03:45:07;;;;;;;10.90;2.90;;;;;;;16.32;64.45;102825.63;5051174;28;20104;-39
2021/09/01 03:47:33;;;;;;;10.55;3.22;;;;;;;16.29;65.16;102819.69;5052156;28;20029;-39
2021/09/01 03:49:59;;;;;;;11.93;3.63;;;;;;;16.28;65.00;102816.13;5052532;28;20108;-41
2021/09/01 03:52:24;;;;;;;12.00;3.60;;;;;;;16.26;65.44;102820.03;5052540;28;20047;-41
2021/09/01 03:54:49;;;;;;;13.52;3.38;;;;;;;16.25;65.05;102813.78;5051888;28;20029;-41
2021/09/01 03:57:15;;;;;;;6.88;3.13;;;;;;;16.23;65.41;102811.22;5052482;28;20060;-40
2021/09/01 03:59:40;;;;;;;10.40;3.50;;;;;;;16.22;65.20;102819.56;5050521;28;20120;-41
2021/09/01 04:02:06;;;;;;;17.67;3.42;;;;;;;16.26;65.39;102820.88;5052241;28;20114;-41
2021/09/01 04:04:32;;;;;;;10.80;3.60;;;;;;;16.26;65.16;102820.88;5052160;28;20465;-41
2021/09/01 04:06:57;;;;;;;12.02;3.55;;;;;;;16.23;65.63;102823.94;5051317;28;20048;-41
2021/09/01 04:09:23;;;;;;;11.35;3.50;;;;;;;16.20;66.05;102827.84;5052214;28;20409;-41
2021/09/01 04:11:48;;;;;;;16.65;3.28;;;;;;;16.17;65.54;102821.94;5051496;28;20122;-41
2021/09/01 04:14:13;;;;;;;16.92;4.10;;;;;;;16.14;66.21;102820.41;5050933;28;20029;-40
2021/09/01 04:16:39;;;;;;;8.25;3.13;;;;;;;16.16;66.27;102825.66;5051579;28;20029;-41
2021/09/01 04:19:04;;;;;;;11.43;3.28;;;;;;;16.14;66.54;102822.25;5051714;28;20021;-41
2021/09/01 04:21:29;;;;;;;15.98;3.35;;;;;;;16.14;66.76;102816.81;5051264;28;20033;-41
2021/09/01 04:23:56;;;;;;;14.75;3.85;;;;;;;16.15;66.87;102818.53;5050800;28;20041;-42
2021/09/01 04:26:21;;;;;;;10.98;3.60;;;;;;;16.14;66.79;102823.13;5050566;28;20063;-40
2021/09/01 04:28:46;;;;;;;14.45;3.70;;;;;;;16.13;67.08;102817.84;5051544;28;20017;-41
2021/09/01 04:31:12;;;;;;;10.13;3.38;;;;;;;16.13;68.00;102820.56;5051264;28;20447;-41
2021/09/01 04:33:37;;;;;;;10.98;3.83;;;;;;;16.08;67.96;102823.78;5051213;28;20031;-41
2021/09/01 04:36:02;;;;;;;11.68;3.40;;;;;;;16.04;68.00;102822.44;5051172;28;20029;-40
2021/09/01 04:38:28;;;;;;;13.70;3.47;;;;;;;16.05;67.79;102826.84;5051433;28;20033;-40
2021/09/01 04:40:53;;;;;;;10.75;3.58;;;;;;;16.02;67.98;102822.59;5051350;28;20033;-41
2021/09/01 04:43:18;;;;;;;11.30;3.58;;;;;;;16.02;67.96;102830.75;5051676;28;20032;-41
2021/09/01 04:45:44;;;;;;;11.25;3.40;;;;;;;16.05;67.94;102823.28;5049388;28;20032;-41
2021/09/01 04:48:09;;;;;;;11.68;3.45;;;;;;;16.01;67.82;102817.34;5047422;28;20032;-41
2021/09/01 04:50:35;;;;;;;13.80;3.60;;;;;;;16.02;68.84;102829.91;5051384;28;20406;-40
2021/09/01 04:53:00;;;;;;;11.20;2.90;;;;;;;16.02;67.83;102822.59;5053703;28;20033;-41
2021/09/01 04:55:26;;;;;;;10.75;3.67;;;;;;;16.07;68.22;102829.41;5053659;28;20029;-40
2021/09/01 04:57:51;;;;;;;12.32;3.65;;;;;;;16.09;67.48;102830.06;5051793;28;20028;-41
2021/09/01 05:00:17;;;;;;;13.23;3.70;;;;;;;16.09;68.11;102830.06;5053361;28;20021;-40
2021/09/01 05:02:42;;;;;;;12.57;3.90;;;;;;;16.12;67.44;102829.75;5047239;28;20134;-40
2021/09/01 05:05:08;;;;;;;12.13;3.63;;;;;;;16.09;67.50;102821.91;5049690;28;20166;-41
2021/09/01 05:07:34;;;;;;;15.30;3.88;;;;;;;16.09;67.25;102824.63;5050938;28;20037;-40
2021/09/01 05:09:59;;;;;;;11.55;3.50;;;;;;;16.11;67.64;102823.44;5050321;28;20029;-40
2021/09/01 05:12:26;;;;;;;14.38;3.72;;;;;;;16.11;67.74;102823.44;5049811;28;20041;-43
2021/09/01 05:14:55;;;;;;;13.40;3.85;;;;;;;16.13;67.24;102836.84;5049395;28;20132;-41
2021/09/01 05:17:21;;;;;;;12.98;3.80;;;;;;;16.13;68.02;102831.44;5048198;28;20032;-41
2021/09/01 05:19:47;;;;;;;13.52;3.67;;;;;;;16.16;67.18;102825.66;5050543;28;20029;-41
2021/09/01 05:22:19;;;;;;;12.38;3.75;;;;;;;16.18;66.57;102832.59;5049581;28;20021;-42
2021/09/01 05:25:04;;;;;;;10.77;3.22;;;;;;;16.15;66.54;102827.53;5049348;28;20032;-41
2021/09/01 05:27:35;;;;;;;13.90;4.00;;;;;;;16.15;67.75;102832.09;5050783;28;20056;-42
2021/09/01 05:30:01;;;;;;;20.42;3.60;;;;;;;16.15;67.73;102834.81;5049529;28;20078;-42
2021/09/01 05:32:29;;;;;;;11.55;3.53;;;;;;;16.12;68.15;102835.16;5049342;28;20853;-42
2021/09/01 05:34:59;;;;;;;15.23;3.95;;;;;;;16.13;67.87;102832.25;5053258;28;20029;-41
2021/09/01 05:37:24;;;;;;;12.23;3.50;;;;;;;16.15;68.19;102842.97;5053811;28;20376;-42
2021/09/01 05:39:52;;;;;;;15.50;3.30;;;;;;;16.18;68.16;102839.91;5054389;28;20021;-43
2021/09/01 05:42:19;;;;;;;13.82;3.58;;;;;;;16.22;67.73;102844.00;5054092;28;20104;-41
2021/09/01 05:44:45;;;;;;;8.52;3.08;;;;;;;16.19;68.65;102849.75;5053762;28;20033;-41
2021/09/01 05:47:13;;;;;;;14.73;3.80;;;;;;;16.17;68.85;102844.50;5053270;28;20025;-41
2021/09/01 05:49:41;;;;;;;14.93;4.05;;;;;;;16.19;68.16;102842.47;5055553;28;20029;-40
2021/09/01 05:52:07;;;;;;;8.55;3.03;;;;;;;16.21;67.69;102836.84;5058548;28;20033;-41
2021/09/01 05:54:33;;;;;;;8.90;3.70;;;;;;;16.23;68.83;102837.53;5053113;28;20083;-42
2021/09/01 05:57:11;;;;;;;12.40;3.40;;;;;;;16.20;69.06;102833.28;5053043;28;20029;-41
2021/09/01 05:59:48;;;;;;;14.88;3.92;;;;;;;16.23;68.93;102841.09;5053147;28;20434;-40
2021/09/01 06:02:19;;;;;;;14.32;3.53;;;;;;;16.26;69.75;102837.19;5052379;28;20037;-40
2021/09/01 06:04:45;;;;;;;11.82;3.30;;;;;;;16.29;69.03;102849.59;5053383;28;20057;-40
2021/09/01 06:07:13;;;;;;;9.73;3.88;;;;;;;16.28;68.71;102845.19;5050733;28;20106;-41
2021/09/01 06:09:41;;;;;;;11.90;3.92;;;;;;;16.31;68.26;102851.13;5052508;28;20025;-41
2021/09/01 06:12:07;;;;;;;14.85;3.47;;;;;;;16.31;70.03;102848.41;5053237;28;20021;-41
2021/09/01 06:14:33;;;;;;;10.30;3.60;;;;;;;16.31;69.41;102844.84;5052902;28;20118;-43
2021/09/01 06:16:58;;;;;;;17.60;4.10;;;;;;;16.28;69.12;102848.75;5033104;28;20049;-41
2021/09/01 06:19:23;;;;;;;7.40;3.55;;;;;;;16.29;69.62;102847.72;5053020;28;20055;-40
2021/09/01 06:21:49;;;;;;;13.10;3.80;;;;;;;16.32;68.73;102855.50;5053081;28;20033;-40
2021/09/01 06:24:14;;;;;;;10.65;4.07;;;;;;;16.35;68.50;102852.47;5052559;28;20036;-41
2021/09/01 06:26:39;;;;;;;9.55;3.47;;;;;;;16.40;68.91;102858.25;5053057;28;20445;-41
2021/09/01 06:29:05;;;;;;;17.90;4.05;;;;;;;16.41;68.06;102851.78;5052965;28;20442;-41
2021/09/01 06:31:35;;;;;;;14.13;4.13;;;;;;;16.43;68.52;102860.63;5051072;28;20488;-41
2021/09/01 06:34:00;;;;;;;19.80;4.60;;;;;;;16.44;68.11;102865.03;5050856;28;20024;-41
2021/09/01 06:36:26;;;;;;;13.13;3.50;;;;;;;16.45;68.48;102861.28;5051251;28;20393;-41
2021/09/01 06:38:51;;;;;;;14.07;3.97;;;;;;;16.45;68.93;102864.00;5044012;28;20116;-42
2021/09/01 06:41:16;;;;;;;16.45;3.78;;;;;;;16.44;67.94;102867.75;5051701;28;20187;-42
2021/09/01 06:43:42;;;;;;;13.20;3.40;;;;;;;16.51;68.72;102877.91;5050590;28;20059;-41
2021/09/01 06:46:07;;;;;;;16.13;3.92;;;;;;;16.47;68.38;102869.28;5051739;28;20047;-42
2021/09/01 06:48:32;;;;;;;22.15;4.13;;;;;;;16.48;68.46;102867.41;5051775;28;20086;-43
2021/09/01 06:50:58;;;;;;;17.13;4.20;;;;;;;16.49;69.68;102869.97;5052045;28;20039;-42
2021/09/01 06:53:23;;;;;;;10.65;3.35;;;;;;;16.51;69.59;102867.03;5050578;28;20029;-42
2021/09/01 06:55:48;;;;;;;13.32;3.45;;;;;;;16.53;69.74;102865.00;5051979;28;20075;-43
2021/09/01 06:58:15;;;;;;;18.67;4.88;;;;;;;16.53;69.36;102867.72;5040553;28;20095;-41
2021/09/01 07:00:41;;;;;;;13.60;3.88;;;;;;;16.53;68.33;102870.44;5049773;28;20025;-41
2021/09/01 07:03:06;;;;;;;13.65;3.75;;;;;;;16.54;67.72;102873.00;5051935;28;20036;-42
2021/09/01 07:05:32;;;;;;;10.23;3.65;;;;;;;16.57;68.17;102869.09;5051507;28;20040;-40
2021/09/01 07:07:57;;;;;;;11.52;3.50;;;;;;;16.59;68.51;102864.34;5051060;28;20067;-40
2021/09/01 07:10:22;;;;;;;8.40;3.08;;;;;;;16.57;67.06;102872.66;5052092;28;20484;-41
2021/09/01 07:12:48;;;;;;;11.13;3.25;;;;;;;16.59;66.64;102861.63;5050559;28;20557;-42
2021/09/01 07:15:13;;;;;;;9.10;3.05;;;;;;;16.58;67.98;102873.50;5046544;28;20511;-42
2021/09/01 07:17:41;;;;;;;16.52;3.67;;;;;;;16.55;68.14;102879.28;5051394;28;20423;-41
2021/09/01 07:20:07;;;;;;;8.68;3.03;;;;;;;16.53;67.93;102878.59;5050191;28;20025;-41
2021/09/01 07:22:32;;;;;;;16.10;2.88;;;;;;;16.51;68.69;102884.22;5051510;28;20056;-40
2021/09/01 07:24:58;;;;;;;13.38;3.33;;;;;;;16.49;69.01;102888.13;5050500;28;20456;-41
2021/09/01 07:27:23;;;;;;;8.98;3.47;;;;;;;16.48;70.00;102889.13;5049870;28;20068;-40
2021/09/01 07:29:48;;;;;;;13.02;3.20;;;;;;;16.46;71.37;102898.31;5050869;28;20025;-41
2021/09/01 07:32:14;;;;;;;9.43;3.00;;;;;;;16.43;70.70;102895.13;5051213;28;20072;-41
2021/09/01 07:34:40;;;;;;;13.32;3.45;;;;;;;16.41;72.68;102902.56;5049618;28;20436;-41
2021/09/01 07:37:05;;;;;;;12.15;2.67;;;;;;;16.35;72.96;102895.97;5050404;28;20029;-42
2021/09/01 07:39:31;;;;;;;11.85;4.00;;;;;;;16.33;73.88;102903.44;5049208;28;20087;-41
2021/09/01 07:41:56;;;;;;;12.23;3.60;;;;;;;16.30;73.29;102901.06;5051024;28;20071;-41
2021/09/01 07:44:21;;;;;;;13.27;3.17;;;;;;;16.30;74.52;102903.78;5050807;28;20094;-41
2021/09/01 07:46:47;;;;;;;12.05;2.90;;;;;;;16.27;74.61;102909.53;5050618;28;20384;-42
2021/09/01 07:49:12;;;;;;;11.38;3.13;;;;;;;16.28;74.74;102916.66;5050936;28;20479;-41
2021/09/01 07:51:37;;;;;;;13.02;2.92;;;;;;;16.32;74.82;102918.00;5050691;28;20029;-41
2021/09/01 07:54:03;;;;;;;12.43;3.70;;;;;;;16.32;76.27;102923.44;5050204;28;20163;-41
2021/09/01 07:56:28;;;;;;;14.32;3.28;;;;;;;16.24;76.47;102923.44;5048254;28;20094;-41
2021/09/01 07:58:53;;;;;;;10.10;2.70;;;;;;;16.21;76.67;102923.78;5048470;28;20085;-40
2021/09/01 08:01:19;;;;;;;13.13;3.75;;;;;;;16.18;76.41;102922.25;5045429;28;20087;-41
2021/09/01 08:03:44;;;;;;;10.80;2.75;;;;;;;16.19;74.38;102931.25;5050567;28;20032;-41
2021/09/01 08:06:09;;;;;;;15.63;2.83;;;;;;;16.20;76.70;102924.81;5050880;28;20451;-42
2021/09/01 08:08:35;;;;;;;10.85;3.42;;;;;;;16.47;76.00;102926.34;5050349;28;20488;-41
2021/09/01 08:11:00;;;;;;;11.07;2.38;;;;;;;16.79;74.45;102930.09;5049765;28;20120;-41
2021/09/01 08:13:26;;;;;;;9.98;3.08;;;;;;;17.02;73.13;102931.06;5049215;28;20029;-40
2021/09/01 08:15:52;;;;;;;9.90;2.95;;;;;;;17.21;73.02;102935.25;5049951;28;20112;-41
2021/09/01 08:18:17;;;;;;;10.43;2.92;;;;;;;17.26;72.76;102945.63;5044564;28;20464;-41
2021/09/01 08:20:43;;;;;;;12.57;2.47;;;;;;;17.50;70.67;102939.25;5049687;28;20416;-40
2021/09/01 08:23:08;;;;;;;8.07;2.47;;;;;;;17.63;69.70;102946.84;5049054;28;20102;-40
2021/09/01 08:25:33;;;;;;;4.68;1.75;;;;;;;17.68;69.30;102937.09;5050316;28;20068;-41
2021/09/01 08:27:59;;;;;;;5.78;1.67;;;;;;;17.68;69.58;102941.72;5053003;28;20044;-41
2021/09/01 08:30:24;;;;;;;6.60;1.20;;;;;;;17.68;69.17;102948.00;5053304;28;20048;-41
2021/09/01 08:32:49;;;;;;;5.07;1.55;;;;;;;17.76;68.92;102950.69;5054856;28;20068;-41
2021/09/01 08:35:15;;;;;;;5.32;1.52;;;;;;;17.96;67.50;102948.41;5054534;28;20044;-40
2021/09/01 08:37:40;;;;;;;4.53;1.42;;;;;;;18.04;67.00;102952.94;5052925;28;20025;-41
2021/09/01 08:40:07;;;;;;;6.20;1.23;;;;;;;18.18;66.80;102956.78;5051150;28;20029;-40
2021/09/01 08:42:35;;;;;;;8.40;1.90;;;;;;;18.23;66.19;102957.06;5054747;28;20540;-40
2021/09/01 08:45:01;;;;;;;5.20;1.45;;;;;;;18.27;65.90;102957.53;5056317;28;20354;-40
2021/09/01 08:47:26;;;;;;;8.13;1.85;;;;;;;18.30;66.55;102957.19;5053496;28;20108;-41
2021/09/01 08:49:52;;;;;;;8.10;1.70;;;;;;;18.37;67.40;102963.63;5054143;28;20029;-41
2021/09/01 08:52:17;;;;;;;4.80;2.03;;;;;;;18.52;66.74;102963.69;5054615;28;20024;-41
2021/09/01 08:54:42;;;;;;;4.30;1.30;;;;;;;18.62;66.18;102965.13;5054075;28;20461;-41
2021/09/01 08:57:08;;;;;;;2.45;1.30;;;;;;;18.56;65.06;102962.25;5054568;28;20056;-42
2021/09/01 08:59:33;;;;;;;2.42;0.98;;;;;;;18.47;66.98;102961.50;5051436;28;20050;-41
2021/09/01 09:02:00;;;;;;;2.63;0.90;;;;;;;18.31;66.55;102962.47;5046054;28;20051;-40
2021/09/01 09:04:29;;;;;;;4.03;1.23;;;;;;;18.18;67.43;102960.34;5053212;28;20044;-41
2021/09/01 09:06:57;;;;;;;5.25;2.00;;;;;;;18.06;67.99;102956.34;5052450;28;20036;-41
2021/09/01 09:09:25;;;;;;;5.60;1.60;;;;;;;17.90;68.71;102949.09;5049832;28;20366;-40
2021/09/01 09:11:51;;;;;;;7.65;2.13;;;;;;;17.89;69.36;102952.00;5053386;28;20130;-41
2021/09/01 09:14:22;;;;;;;4.93;1.83;;;;;;;17.81;70.27;102952.06;5054323;28;20127;-40
2021/09/01 09:17:08;;;;;;;3.33;1.50;;;;;;;17.96;68.20;102950.28;5053879;28;20064;-42
2021/09/01 09:20:09;;;;;;;3.33;1.77;;;;;;;18.10;67.67;102952.22;5053430;28;20369;-41
2021/09/01 09:22:39;;;;;;;6.00;2.05;;;;;;;18.24;67.39;102947.00;5053466;28;20029;-41
2021/09/01 09:25:08;;;;;;;7.10;2.15;;;;;;;18.63;65.52;102947.72;5050752;28;20029;-42
2021/09/01 09:27:50;;;;;;;9.15;1.98;;;;;;;19.03;63.50;102956.56;5051681;28;20082;-42
2021/09/01 09:30:31;;;;;;;12.35;2.47;;;;;;;19.33;63.13;102958.47;5049363;28;20037;-42
2021/09/01 09:33:14;;;;;;;14.38;2.80;;;;;;;19.71;61.39;102951.00;5051081;28;20163;-41
2021/09/01 09:35:52;;;;;;;11.32;2.08;;;;;;;19.93;60.95;102960.94;5051299;28;20036;-41
2021/09/01 09:38:30;;;;;;;7.32;2.05;;;;;;;20.55;60.22;102948.53;5049978;28;20508;-42
2021/09/01 09:40:57;;;;;;;5.03;1.58;;;;;;;22.33;54.49;102957.09;5049695;28;20029;-42
2021/09/01 09:43:23;;;;;;;1.75;1.38;;;;;;;23.85;49.31;102955.97;5053381;28;20042;-42
2021/09/01 09:45:58;;;;;;;3.30;1.10;;;;;;;24.40;45.74;102954.56;5053797;28;20029;-39
2021/09/01 09:48:31;;;;;;;3.50;1.13;;;;;;;23.67;47.92;102959.41;5052918;28;20021;-41
2021/09/01 09:50:56;;;;;;;2.63;1.30;;;;;;;23.38;49.06;102955.31;5052972;28;20033;-40
2021/09/01 09:53:32;;;;;;;4.40;1.83;;;;;;;23.04;50.59;102956.47;5050764;28;20029;-42
2021/09/01 09:56:05;;;;;;;4.68;1.15;;;;;;;22.81;50.73;102943.16;5054671;28;20071;-45
2021/09/01 09:58:34;;;;;;;10.30;1.40;;;;;;;22.50;51.23;102952.84;5051657;28;20025;-42
2021/09/01 10:01:03;;;;;;;7.55;1.20;;;;;;;22.16;51.67;102955.75;5027584;28;20108;-42
2021/09/01 10:03:29;;;;;;;4.32;1.20;;;;;;;21.92;52.83;102950.63;5054889;28;20040;-41
2021/09/01 10:05:54;;;;;;;3.85;1.10;;;;;;;21.65;53.89;102944.22;5054721;28;20025;-45
2021/09/01 10:08:19;;;;;;;1.90;1.05;;;;;;;21.56;54.01;102942.69;5055051;28;20029;-43
2021/09/01 10:10:45;;;;;;;2.78;1.13;;;;;;;21.45;54.54;102938.63;5053880;28;20077;-41
2021/09/01 10:13:10;;;;;;;2.78;1.30;;;;;;;21.32;55.67;102937.69;5051583;28;20135;-41
2021/09/01 10:15:39;;;;;;;4.43;1.60;;;;;;;21.51;54.28;102928.75;5053226;28;20112;-40
2021/09/01 10:18:06;;;;;;;3.40;1.38;;;;;;;21.58;53.58;102926.06;5053302;28;20025;-42
2021/09/01 10:20:32;;;;;;;6.53;1.25;;;;;;;21.48;53.83;102926.44;5052227;28;20040;-42
2021/09/01 10:23:03;;;;;;;2.13;1.05;;;;;;;21.82;52.17;102922.75;5034102;28;20556;-42
2021/09/01 10:25:33;;;;;;;5.18;1.52;;;;;;;21.79;53.38;102927.81;5053180;28;20589;-41
2021/09/01 10:28:20;;;;;;;2.65;1.23;;;;;;;22.19;52.16;102930.66;5052563;28;20025;-42
2021/09/01 10:31:11;;;;;;;4.32;1.38;;;;;;;22.29;52.18;102933.84;5052841;28;20412;-41
2021/09/01 10:33:38;;;;;;;4.03;1.30;;;;;;;22.42;51.85;102928.38;5052558;28;20076;-42
2021/09/01 10:36:22;;;;;;;5.00;1.40;;;;;;;22.46;50.82;102926.91;5050435;28;20025;-42
2021/09/01 10:38:48;;;;;;;2.17;1.20;;;;;;;22.70;49.28;102913.59;5052143;28;20049;-42
2021/09/01 10:41:28;;;;;;;3.15;1.42;;;;;;;22.93;49.47;102922.22;5049654;28;20463;-42
2021/09/01 10:43:55;;;;;;;3.65;0.95;;;;;;;22.85;49.66;102919.69;5051807;28;20024;-43
2021/09/01 10:46:20;;;;;;;2.28;1.20;;;;;;;22.43;51.18;102930.06;5052323;28;20036;-42
2021/09/01 10:48:56;;;;;;;6.13;1.60;;;;;;;22.09;51.38;102922.81;5051868;28;20021;-41
2021/09/01 10:51:27;;;;;;;5.45;1.58;;;;;;;21.69;52.51;102925.44;5046246;28;20449;-41
2021/09/01 10:53:52;;;;;;;6.40;1.40;;;;;;;21.23;53.57;102917.88;5050800;28;20029;-43
2021/09/01 10:56:17;;;;;;;7.10;1.38;;;;;;;20.96;54.22;102911.41;5050675;28;20048;-42
2021/09/01 10:58:44;;;;;;;4.85;1.50;;;;;;;20.49;56.51;102910.19;5052203;28;20053;-41
2021/09/01 11:01:18;;;;;;;6.43;1.58;;;;;;;20.31;57.28;102907.91;5044802;28;20025;-42
2021/09/01 11:04:01;;;;;;;1.58;1.00;;;;;;;20.14;57.75;102915.53;5048174;28;20488;-41
2021/09/01 11:06:33;;;;;;;5.70;1.50;;;;;;;20.04;59.10;102912.28;5049593;28;20544;-41
2021/09/01 11:09:05;;;;;;;5.20;1.25;;;;;;;20.00;59.32;102910.97;5049088;28;20491;-42
2021/09/01 11:11:38;;;;;;;4.13;1.30;;;;;;;19.78;60.50;102913.69;5049267;28;20490;-42
2021/09/01 11:14:03;;;;;;;6.45;1.50;;;;;;;19.55;61.89;102912.97;5031113;28;20036;-42
2021/09/01 11:16:29;;;;;;;2.67;1.33;;;;;;;19.39;61.49;102909.41;5047277;28;20025;-42
2021/09/01 11:19:02;;;;;;;6.40;1.60;;;;;;;19.32;63.46;102908.47;5047526;28;20028;-41